createdAt,value
2019-04-05T00:00:22.532Z,90.91
2019-04-05T00:02:49.127Z,91.08
2019-04-05T00:05:16.124Z,91.30
2019-04-05T00:07:42.977Z,91.48
2019-04-05T00:10:10.834Z,91.52
2019-04-05T00:12:37.724Z,91.64
2019-04-05T00:15:14.604Z,91.61
2019-04-05T00:17:33.227Z,91.43
2019-04-05T00:20:03.290Z,91.21
2019-04-05T00:22:29.858Z,91.46
2019-04-05T00:24:56.458Z,91.40
2019-04-05T00:27:22.988Z,91.36
2019-04-05T00:29:56.228Z,91.42
2019-04-05T00:32:22.749Z,91.32
2019-04-05T00:34:50.510Z,91.38
2019-04-05T00:37:17.718Z,91.37
2019-04-05T00:39:44.285Z,91.52
2019-04-05T00:42:12.225Z,91.61
2019-04-05T00:44:38.732Z,92.07
2019-04-05T00:47:05.338Z,92.30
2019-04-05T00:49:32.001Z,92.15
2019-04-05T00:52:00.030Z,92.19
2019-04-05T00:54:26.893Z,91.99
2019-04-05T00:56:53.563Z,91.95
2019-04-05T00:59:20.642Z,92.13
2019-04-05T01:01:48.640Z,91.83
2019-04-05T01:04:15.364Z,91.93
2019-04-05T01:06:41.936Z,92.05
2019-04-05T01:09:08.609Z,92.56
2019-04-05T01:11:36.256Z,92.67
2019-04-05T01:14:03.134Z,92.52
2019-04-05T01:16:29.743Z,92.64
2019-04-05T01:18:56.619Z,93.26
2019-04-05T01:21:23.979Z,93.37
2019-04-05T01:23:51.837Z,93.56
2019-04-05T01:26:18.490Z,93.91
2019-04-05T01:28:50.831Z,94.05
2019-04-05T01:31:17.349Z,94.05
2019-04-05T01:33:43.996Z,94.00
2019-04-05T01:36:10.522Z,94.11
2019-04-05T01:38:37.247Z,94.24
2019-04-05T01:41:03.825Z,94.10
2019-04-05T01:43:30.733Z,94.24
2019-04-05T01:45:58.204Z,94.39
2019-04-05T01:48:24.976Z,94.48
2019-04-05T01:50:51.968Z,94.46
2019-04-05T01:53:18.480Z,94.18
2019-04-05T01:55:45.118Z,94.21
2019-04-05T01:58:11.703Z,94.05
2019-04-05T02:00:45.845Z,94.20
2019-04-05T02:03:12.785Z,94.21
2019-04-05T02:05:39.481Z,94.60
2019-04-05T02:08:06.144Z,94.68
2019-04-05T02:10:32.808Z,94.74
2019-04-05T02:12:59.468Z,94.83
2019-04-05T02:15:28.344Z,95.09
2019-04-05T02:17:55.531Z,95.27
2019-04-05T02:20:25.585Z,95.01
2019-04-05T02:22:52.854Z,94.92
2019-04-05T02:25:19.738Z,94.72
2019-04-05T02:27:46.390Z,95.10
2019-04-05T02:30:14.474Z,95.19
2019-04-05T02:32:41.153Z,95.36
2019-04-05T02:35:07.868Z,95.51
2019-04-05T02:37:34.567Z,95.62
2019-04-05T02:40:01.339Z,95.79
2019-04-05T02:42:28.346Z,95.71
2019-04-05T02:44:55.481Z,95.61
2019-04-05T02:47:24.463Z,95.46
2019-04-05T02:49:53.965Z,95.50
2019-04-05T02:52:25.381Z,95.45
2019-04-05T02:54:51.083Z,95.58
2019-04-05T02:57:17.829Z,95.78
2019-04-05T02:59:44.787Z,95.99
2019-04-05T03:02:13.919Z,96.15
2019-04-05T03:04:40.586Z,96.40
2019-04-05T03:07:07.454Z,96.47
2019-04-05T03:09:34.294Z,96.60
2019-04-05T03:12:01.280Z,96.54
2019-04-05T03:14:28.541Z,96.39
2019-04-05T03:16:55.072Z,96.48
2019-04-05T03:19:28.506Z,96.78
2019-04-05T03:22:00.788Z,96.97
2019-04-05T03:24:28.949Z,96.82
2019-04-05T03:27:01.873Z,96.67
2019-04-05T03:29:28.655Z,96.85
2019-04-05T03:31:55.641Z,96.85
2019-04-05T03:34:22.309Z,97.05
2019-04-05T03:36:57.610Z,97.15
2019-04-05T03:39:24.268Z,97.14
2019-04-05T03:41:52.054Z,97.15
2019-04-05T03:44:22.812Z,97.05
2019-04-05T03:46:56.799Z,96.80
2019-04-05T03:49:23.633Z,96.70
2019-04-05T03:51:51.053Z,96.53
2019-04-05T03:54:17.662Z,96.58
2019-04-05T03:56:44.330Z,96.86
2019-04-05T03:59:11.213Z,96.80
2019-04-05T04:01:38.265Z,96.58
2019-04-05T04:04:08.958Z,96.61
2019-04-05T04:06:35.766Z,96.59
2019-04-05T04:09:03.832Z,96.58
2019-04-05T04:11:30.671Z,96.46
2019-04-05T04:13:57.939Z,96.56
2019-04-05T04:16:24.985Z,96.73
2019-04-05T04:18:54.160Z,96.67
2019-04-05T04:22:01.246Z,96.91
2019-04-05T04:24:28.300Z,97.11
2019-04-05T04:26:55.473Z,97.22
2019-04-05T04:29:23.658Z,97.41
2019-04-05T04:31:50.142Z,97.43
2019-04-05T04:34:16.939Z,97.39
2019-04-05T04:36:43.652Z,97.59
2019-04-05T04:39:10.359Z,97.95
2019-04-05T04:41:37.010Z,98.21
2019-04-05T04:44:03.627Z,98.41
2019-04-05T04:46:31.405Z,98.45
2019-04-05T04:48:57.976Z,98.67
2019-04-05T04:51:25.023Z,99.01
2019-04-05T04:53:51.734Z,99.41
2019-04-05T04:56:19.417Z,99.48
2019-04-05T04:58:46.451Z,99.67
2019-04-05T05:01:13.147Z,99.85
2019-04-05T05:03:39.879Z,99.98
2019-04-05T05:06:11.565Z,100.00
2019-04-05T05:08:38.711Z,100.00
2019-04-05T05:11:14.346Z,100.00
2019-04-05T05:13:34.666Z,100.00
2019-04-05T05:16:01.791Z,100.00
2019-04-05T05:18:29.932Z,100.00
2019-04-05T05:20:56.601Z,100.00
2019-04-05T05:23:23.769Z,100.00
2019-04-05T05:25:50.695Z,100.00
2019-04-05T05:28:17.293Z,100.00
2019-04-05T05:30:44.019Z,100.00
2019-04-05T05:33:10.893Z,100.00
2019-04-05T05:35:37.561Z,100.00
2019-04-05T05:38:04.340Z,100.00
2019-04-05T05:40:35.536Z,100.00
2019-04-05T05:43:02.713Z,100.00
2019-04-05T05:45:29.389Z,100.00
2019-04-05T05:47:56.099Z,100.00
2019-04-05T05:50:22.868Z,100.00
2019-04-05T05:52:49.489Z,100.00
2019-04-05T05:55:16.280Z,100.00
2019-04-05T05:57:42.773Z,100.00
2019-04-05T06:00:10.672Z,100.00
2019-04-05T06:02:38.758Z,100.00
2019-04-05T06:05:06.389Z,100.00
2019-04-05T06:07:33.177Z,100.00
2019-04-05T06:09:59.706Z,100.00
2019-04-05T06:12:26.579Z,100.00
2019-04-05T06:14:53.114Z,100.00
2019-04-05T06:17:19.911Z,100.00
2019-04-05T06:19:47.558Z,100.00
2019-04-05T06:22:14.156Z,100.00
2019-04-05T06:24:40.897Z,100.00
2019-04-05T06:27:07.459Z,100.00
2019-04-05T06:29:34.140Z,100.00
2019-04-05T06:32:00.766Z,100.00
2019-04-05T06:34:28.434Z,100.00
2019-04-05T06:36:55.314Z,100.00
2019-04-05T06:39:21.850Z,100.00
2019-04-05T06:41:49.495Z,100.00
2019-04-05T06:44:18.536Z,100.00
2019-04-05T06:46:45.119Z,100.00
2019-04-05T06:49:11.757Z,100.00
2019-04-05T06:51:40.272Z,100.00
2019-04-05T06:54:06.974Z,100.00
2019-04-05T06:56:34.987Z,100.00
2019-04-05T06:59:04.658Z,100.00
2019-04-05T07:01:36.930Z,100.00
2019-04-05T07:04:03.972Z,100.00
2019-04-05T07:06:30.530Z,100.00
2019-04-05T07:08:57.228Z,100.00
2019-04-05T07:11:26.269Z,100.00
2019-04-05T07:13:55.563Z,100.00
2019-04-05T07:16:22.322Z,100.00
2019-04-05T07:18:48.926Z,100.00
2019-04-05T07:21:17.353Z,100.00
2019-04-05T07:23:44.889Z,100.00
2019-04-05T07:26:12.624Z,100.00
2019-04-05T07:28:39.184Z,100.00
2019-04-05T07:31:05.893Z,100.00
2019-04-05T07:33:32.558Z,100.00
2019-04-05T07:35:59.749Z,100.00
2019-04-05T07:38:26.427Z,100.00
2019-04-05T07:40:52.981Z,100.00
2019-04-05T07:43:22.069Z,100.00
2019-04-05T07:45:49.078Z,100.00
2019-04-05T07:48:16.182Z,100.00
2019-04-05T07:50:44.103Z,100.00
2019-04-05T07:53:10.629Z,100.00
2019-04-05T07:55:38.374Z,100.00
2019-04-05T07:58:05.476Z,100.00
2019-04-05T08:00:44.971Z,100.00
2019-04-05T08:03:11.603Z,100.00
2019-04-05T08:05:38.496Z,100.00
2019-04-05T08:08:07.183Z,100.00
2019-04-05T08:10:35.861Z,100.00
2019-04-05T08:13:02.845Z,100.00
2019-04-05T08:15:29.545Z,99.91
2019-04-05T08:17:56.113Z,99.75
2019-04-05T08:20:25.144Z,99.14
2019-04-05T08:22:54.128Z,98.97
2019-04-05T08:25:20.989Z,98.46
2019-04-05T08:27:47.778Z,97.89
2019-04-05T08:30:14.334Z,97.56
2019-04-05T08:32:43.675Z,97.13
2019-04-05T08:35:11.655Z,96.79
2019-04-05T08:37:46.981Z,97.07
2019-04-05T08:40:26.365Z,96.63
2019-04-05T08:42:53.161Z,96.74
2019-04-05T08:45:20.961Z,96.52
2019-04-05T08:47:49.027Z,95.83
2019-04-05T08:50:15.915Z,95.91
2019-04-05T08:52:42.809Z,95.81
2019-04-05T08:55:10.781Z,95.79
2019-04-05T08:57:37.727Z,95.97
2019-04-05T09:00:04.623Z,96.09
2019-04-05T09:02:31.531Z,95.57
2019-04-05T09:04:58.168Z,95.47
2019-04-05T09:07:25.228Z,95.39
2019-04-05T09:09:53.297Z,95.86
2019-04-05T09:12:19.939Z,95.58
2019-04-05T09:14:46.722Z,95.30
2019-04-05T09:17:13.542Z,94.82
2019-04-05T09:19:40.418Z,95.05
2019-04-05T09:22:07.047Z,94.67
2019-04-05T09:24:33.610Z,94.60
2019-04-05T09:27:00.346Z,94.65
2019-04-05T09:29:26.949Z,94.88
2019-04-05T09:31:53.754Z,94.42
2019-04-05T09:34:23.124Z,94.39
2019-04-05T09:36:49.055Z,94.35
2019-04-05T09:39:16.727Z,94.02
2019-04-05T09:41:43.413Z,93.18
2019-04-05T09:44:09.975Z,93.09
2019-04-05T09:46:46.848Z,92.77
2019-04-05T09:49:06.654Z,92.25
2019-04-05T09:51:33.276Z,92.72
2019-04-05T09:54:00.173Z,92.97
2019-04-05T09:56:26.741Z,93.50
2019-04-05T09:58:53.427Z,93.76
2019-04-05T10:01:20.377Z,93.28
2019-04-05T10:03:47.261Z,92.99
2019-04-05T10:06:13.862Z,92.03
2019-04-05T10:08:40.479Z,92.13
2019-04-05T10:11:10.297Z,90.53
2019-04-05T10:13:36.834Z,90.43
2019-04-05T10:16:03.520Z,89.69
2019-04-05T10:18:30.140Z,89.78
2019-04-05T10:20:56.746Z,89.67
2019-04-05T10:23:23.356Z,89.07
2019-04-05T10:25:50.057Z,88.72
2019-04-05T10:28:38.116Z,88.70
2019-04-05T10:31:04.932Z,88.13
2019-04-05T10:33:31.732Z,87.44
2019-04-05T10:35:58.589Z,87.00
2019-04-05T10:38:25.150Z,86.22
2019-04-05T10:40:52.001Z,86.36
2019-04-05T10:43:18.577Z,84.44
2019-04-05T10:45:45.668Z,85.49
2019-04-05T10:48:12.594Z,85.53
2019-04-05T10:50:39.415Z,84.14
2019-04-05T10:53:18.157Z,85.10
2019-04-05T10:55:44.977Z,84.08
2019-04-05T10:58:11.884Z,84.32
2019-04-05T11:00:38.740Z,84.64
2019-04-05T11:03:05.280Z,84.78
2019-04-05T11:05:32.112Z,83.55
2019-04-05T11:07:59.511Z,82.89
2019-04-05T11:10:26.214Z,83.46
2019-04-05T11:12:52.793Z,84.06
2019-04-05T11:15:20.071Z,83.24
2019-04-05T11:17:46.696Z,82.86
2019-04-05T11:20:22.173Z,81.16
2019-04-05T11:22:50.177Z,80.54
2019-04-05T11:25:20.411Z,79.40
2019-04-05T11:27:46.067Z,78.02
2019-04-05T11:30:18.254Z,77.52
2019-04-05T11:32:45.501Z,77.60
2019-04-05T11:35:14.947Z,78.10
2019-04-05T11:37:40.658Z,78.00
2019-04-05T11:40:08.252Z,77.54
2019-04-05T11:42:36.562Z,77.71
2019-04-05T11:45:03.819Z,77.88
2019-04-05T11:47:30.750Z,78.33
2019-04-05T11:49:59.030Z,78.28
2019-04-05T11:52:25.655Z,78.94
2019-04-05T11:54:52.178Z,80.25
2019-04-05T11:57:19.035Z,80.02
2019-04-05T11:59:48.578Z,80.62
2019-04-05T12:02:22.632Z,80.58
2019-04-05T12:04:49.361Z,81.82
2019-04-05T12:07:15.914Z,81.87
2019-04-05T12:09:42.645Z,81.97
2019-04-05T12:12:11.689Z,81.64
2019-04-05T12:14:38.920Z,82.13
2019-04-05T12:17:09.636Z,82.47
2019-04-05T12:19:38.156Z,82.74
2019-04-05T12:22:05.861Z,82.59
2019-04-05T12:24:33.521Z,81.81
2019-04-05T12:27:00.262Z,81.50
2019-04-05T12:29:26.801Z,81.17
2019-04-05T12:31:53.958Z,80.85
2019-04-05T12:34:22.422Z,79.80
2019-04-05T12:36:50.530Z,79.67
2019-04-05T12:39:18.843Z,79.47
2019-04-05T12:41:45.792Z,78.98
2019-04-05T12:44:15.143Z,79.63
2019-04-05T12:46:40.885Z,78.93
2019-04-05T12:49:07.515Z,78.43
2019-04-05T12:51:35.872Z,78.41
2019-04-05T12:54:02.480Z,78.88
2019-04-05T12:56:29.072Z,78.45
2019-04-05T12:58:56.716Z,79.22
2019-04-05T13:01:23.654Z,78.66
2019-04-05T13:03:51.373Z,79.36
2019-04-05T13:06:19.847Z,79.12
2019-04-05T13:08:47.550Z,78.02
2019-04-05T13:11:14.229Z,78.27
2019-04-05T13:13:40.926Z,78.46
2019-04-05T13:16:09.806Z,78.76
2019-04-05T13:18:36.023Z,77.95
2019-04-05T13:21:14.286Z,78.06
2019-04-05T13:23:33.817Z,77.80
2019-04-05T13:26:01.484Z,77.84
2019-04-05T13:28:28.445Z,77.10
2019-04-05T13:30:55.686Z,76.66
2019-04-05T13:33:23.519Z,76.55
2019-04-05T13:35:50.772Z,76.64
2019-04-05T13:38:17.446Z,76.02
2019-04-05T13:40:44.158Z,75.61
2019-04-05T13:43:10.843Z,76.76
2019-04-05T13:45:39.131Z,76.67
2019-04-05T13:48:09.008Z,76.96
2019-04-05T13:50:35.329Z,78.16
2019-04-05T13:53:01.893Z,78.80
2019-04-05T13:55:28.693Z,78.58
2019-04-05T13:57:55.354Z,77.69
2019-04-05T14:00:22.145Z,78.67
2019-04-05T14:02:50.756Z,78.31
2019-04-05T14:05:17.575Z,77.05
2019-04-05T14:07:46.685Z,76.12
2019-04-05T14:10:13.855Z,75.23
2019-04-05T14:12:41.053Z,75.54
2019-04-05T14:15:10.854Z,74.92
2019-04-05T14:17:36.621Z,75.46
2019-04-05T14:20:04.749Z,75.76
2019-04-05T14:22:31.756Z,75.83
2019-04-05T14:25:00.058Z,76.71
2019-04-05T14:27:26.962Z,78.17
2019-04-05T14:29:53.574Z,78.98
2019-04-05T14:32:21.925Z,79.58
2019-04-05T14:34:48.918Z,79.79
2019-04-05T14:37:15.973Z,79.70
2019-04-05T14:39:48.867Z,78.64
2019-04-05T14:42:16.359Z,78.42
2019-04-05T14:44:42.948Z,77.00
2019-04-05T14:47:10.738Z,76.19
2019-04-05T14:49:40.550Z,75.87
2019-04-05T14:52:07.539Z,75.30
2019-04-05T14:54:34.329Z,74.86
2019-04-05T14:57:05.543Z,74.80
2019-04-05T14:59:37.644Z,72.75
2019-04-05T15:02:05.664Z,71.75
2019-04-05T15:04:34.277Z,72.56
2019-04-05T15:07:01.730Z,72.11
2019-04-05T15:09:28.518Z,72.04
2019-04-05T15:11:56.460Z,72.43
2019-04-05T15:14:25.754Z,72.44
2019-04-05T15:16:54.379Z,73.42
2019-04-05T15:19:21.636Z,73.95
2019-04-05T15:21:48.520Z,73.54
2019-04-05T15:24:17.193Z,71.49
2019-04-05T15:26:43.814Z,71.59
2019-04-05T15:29:13.948Z,71.93
2019-04-05T15:31:40.963Z,73.36
2019-04-05T15:34:07.616Z,72.14
2019-04-05T15:36:34.222Z,72.16
2019-04-05T15:39:01.615Z,72.99
2019-04-05T15:41:28.794Z,71.48
2019-04-05T15:43:55.939Z,71.60
2019-04-05T15:46:22.789Z,71.38
2019-04-05T15:48:51.520Z,71.66
2019-04-05T15:51:18.019Z,71.63
2019-04-05T15:53:44.906Z,71.92
2019-04-05T15:56:11.825Z,72.33
2019-04-05T15:58:38.415Z,72.38
2019-04-05T16:01:05.118Z,73.13
2019-04-05T16:03:33.026Z,73.86
2019-04-05T16:06:00.926Z,74.45
2019-04-05T16:08:27.820Z,74.19
2019-04-05T16:10:54.508Z,74.03
2019-04-05T16:13:21.073Z,74.07
2019-04-05T16:15:47.756Z,74.92
2019-04-05T16:18:15.969Z,75.21
2019-04-05T16:20:42.839Z,75.59
2019-04-05T16:23:09.861Z,76.04
2019-04-05T16:25:36.521Z,75.98
2019-04-05T16:28:03.590Z,76.61
2019-04-05T16:30:30.190Z,76.71
2019-04-05T16:32:56.933Z,76.86
2019-04-05T16:35:23.520Z,77.07
2019-04-05T16:37:50.276Z,77.21
2019-04-05T16:40:25.473Z,77.48
2019-04-05T16:43:01.894Z,77.72
2019-04-05T16:45:20.910Z,77.73
2019-04-05T16:47:50.370Z,77.78
2019-04-05T16:50:17.211Z,77.67
2019-04-05T16:52:45.479Z,77.90
2019-04-05T16:55:12.174Z,77.54
2019-04-05T16:57:39.107Z,77.57
2019-04-05T17:00:07.120Z,77.82
2019-04-05T17:02:33.710Z,77.99
2019-04-05T17:05:00.281Z,77.51
2019-04-05T17:07:26.926Z,77.21
2019-04-05T17:09:57.676Z,77.75
2019-04-05T17:12:24.241Z,77.95
2019-04-05T17:14:51.025Z,78.08
2019-04-05T17:17:17.586Z,78.30
2019-04-05T17:19:45.163Z,78.25
2019-04-05T17:22:11.792Z,78.42
2019-04-05T17:24:39.347Z,78.77
2019-04-05T17:27:06.238Z,79.14
2019-04-05T17:29:32.766Z,78.91
2019-04-05T17:31:59.679Z,79.42
2019-04-05T17:34:26.404Z,79.69
2019-04-05T17:36:52.920Z,80.17
2019-04-05T17:39:19.507Z,80.22
2019-04-05T17:41:50.375Z,80.72
2019-04-05T17:44:17.287Z,80.76
2019-04-05T17:46:46.045Z,81.34
2019-04-05T17:49:12.787Z,81.41
2019-04-05T17:51:39.507Z,81.65
2019-04-05T17:54:06.414Z,81.93
2019-04-05T17:56:34.450Z,82.08
2019-04-05T17:59:01.515Z,82.37
2019-04-05T18:01:28.140Z,82.64
2019-04-05T18:03:55.006Z,82.84
2019-04-05T18:06:21.907Z,82.88
2019-04-05T18:08:48.461Z,83.13
2019-04-05T18:11:15.440Z,83.38
2019-04-05T18:13:42.313Z,83.84
2019-04-05T18:16:09.411Z,84.05
2019-04-05T18:18:35.929Z,84.56
2019-04-05T18:21:02.484Z,84.60
2019-04-05T18:23:29.533Z,84.83
2019-04-05T18:25:56.081Z,84.83
2019-04-05T18:28:22.905Z,85.10
2019-04-05T18:30:49.643Z,85.40
2019-04-05T18:33:16.365Z,85.77
2019-04-05T18:35:43.124Z,86.13
2019-04-05T18:38:10.219Z,86.11
2019-04-05T18:40:40.611Z,86.17
2019-04-05T18:43:10.462Z,86.01
2019-04-05T18:45:40.216Z,86.17
2019-04-05T18:48:09.949Z,86.31
2019-04-05T18:50:40.380Z,86.55
2019-04-05T18:53:07.084Z,86.56
2019-04-05T18:55:33.844Z,86.81
2019-04-05T18:58:00.884Z,86.97
2019-04-05T19:00:30.558Z,87.04
2019-04-05T19:02:59.198Z,87.12
2019-04-05T19:05:29.198Z,87.28
2019-04-05T19:07:57.168Z,87.38
2019-04-05T19:10:36.249Z,87.39
2019-04-05T19:12:59.255Z,87.43
2019-04-05T19:15:25.472Z,87.31
2019-04-05T19:17:52.049Z,87.47
2019-04-05T19:20:19.511Z,87.45
2019-04-05T19:22:46.338Z,87.14
2019-04-05T19:25:13.657Z,86.83
2019-04-05T19:27:40.324Z,87.34
2019-04-05T19:50:01.601Z,89.51
2019-04-05T19:52:29.464Z,89.42
2019-04-05T19:54:57.130Z,89.01
2019-04-05T19:57:23.807Z,89.06
2019-04-05T19:59:51.280Z,88.85
2019-04-05T20:02:18.962Z,88.48
2019-04-05T20:04:46.214Z,88.68
2019-04-05T20:07:12.928Z,89.17
2019-04-05T20:09:39.527Z,89.08
2019-04-05T20:12:08.214Z,89.27
2019-04-05T20:15:03.956Z,88.68
2019-04-05T20:17:31.815Z,88.38
2019-04-05T20:19:58.348Z,88.53
2019-04-05T20:22:25.218Z,88.83
2019-04-05T20:24:53.109Z,88.78
2019-04-05T20:27:31.017Z,89.06
2019-04-05T20:29:58.704Z,88.58
2019-04-05T20:32:25.207Z,88.18
2019-04-05T20:34:51.697Z,88.89
2019-04-05T20:37:18.374Z,88.84
2019-04-05T20:39:44.965Z,89.63
2019-04-05T20:42:12.562Z,90.25
2019-04-05T20:44:39.138Z,90.67
2019-04-05T20:47:06.676Z,90.83
2019-04-05T20:49:35.436Z,91.06
2019-04-05T20:52:02.492Z,91.07
2019-04-05T20:54:29.282Z,91.18
2019-04-05T20:56:55.847Z,91.17
2019-04-05T20:59:22.415Z,91.68
2019-04-05T21:01:48.980Z,91.64
2019-04-05T21:04:17.589Z,92.13
2019-04-05T21:06:44.077Z,93.01
2019-04-05T21:09:12.634Z,93.69
2019-04-05T21:11:40.525Z,94.35
2019-04-05T21:14:07.691Z,95.14
2019-04-05T21:16:35.488Z,95.19
2019-04-05T21:19:02.024Z,95.13
2019-04-05T21:21:30.636Z,93.99
2019-04-05T21:23:57.602Z,94.46
2019-04-05T21:26:24.563Z,94.41
2019-04-05T21:28:51.235Z,93.72
2019-04-05T21:31:24.798Z,93.87
2019-04-05T21:33:51.682Z,93.99
2019-04-05T21:36:18.236Z,94.56
2019-04-05T21:38:44.837Z,94.79
2019-04-05T21:41:13.206Z,95.48
2019-04-05T21:43:39.832Z,96.96
2019-04-05T21:46:06.564Z,97.64
2019-04-05T21:48:33.252Z,97.85
2019-04-05T21:50:59.765Z,97.81
2019-04-05T21:53:26.299Z,98.41
2019-04-05T21:55:52.840Z,98.95
2019-04-05T21:58:19.387Z,98.68
2019-04-05T22:00:56.780Z,99.24
2019-04-05T22:03:23.739Z,99.91
2019-04-05T22:05:50.279Z,99.77
2019-04-05T22:08:17.198Z,100.00
2019-04-05T22:10:44.951Z,100.00
2019-04-05T22:13:15.723Z,100.00
2019-04-05T22:15:42.232Z,100.00
2019-04-05T22:18:09.801Z,100.00
2019-04-05T22:20:36.323Z,100.00
2019-04-05T22:23:02.808Z,100.00
2019-04-05T22:25:30.986Z,100.00
2019-04-05T22:27:57.515Z,100.00
2019-04-05T22:30:24.710Z,99.86
2019-04-05T22:32:51.340Z,99.31
2019-04-05T22:35:18.451Z,98.46
2019-04-05T22:37:48.309Z,98.29
2019-04-05T22:40:15.237Z,98.14
2019-04-05T22:42:41.772Z,99.06
2019-04-05T22:45:08.353Z,99.71
2019-04-05T22:47:34.860Z,100.00
2019-04-05T22:50:02.632Z,100.00
2019-04-05T22:52:31.232Z,99.87
2019-04-05T22:54:57.863Z,99.66
2019-04-05T22:57:24.494Z,99.48
2019-04-05T22:59:51.009Z,99.58
2019-04-05T23:02:17.801Z,99.33
2019-04-05T23:04:44.309Z,99.20
2019-04-05T23:07:10.812Z,99.29
2019-04-05T23:09:37.306Z,99.54
2019-04-05T23:12:10.218Z,99.90
2019-04-05T23:14:37.001Z,100.00
2019-04-05T23:17:04.015Z,100.00
2019-04-05T23:19:30.788Z,100.00
2019-04-05T23:21:57.356Z,100.00
2019-04-05T23:24:23.931Z,100.00
2019-04-05T23:26:50.714Z,100.00
2019-04-05T23:29:17.194Z,100.00
2019-04-05T23:31:44.056Z,100.00
2019-04-05T23:34:10.818Z,100.00
2019-04-05T23:36:37.375Z,100.00
2019-04-05T23:39:05.216Z,100.00
2019-04-05T23:41:32.763Z,100.00
2019-04-05T23:43:59.364Z,100.00
2019-04-05T23:46:25.835Z,100.00
2019-04-05T23:48:56.598Z,100.00
2019-04-05T23:51:23.112Z,100.00
2019-04-05T23:53:49.618Z,100.00
2019-04-05T23:56:16.165Z,100.00
2019-04-05T23:58:42.679Z,100.00
